SYNOP

Station Code SYNOP
43555
AAXX 02154 43555 41470 72005 10290 20249 30131 40133 72522 8223/ 333 58012 82818 87362=
43533
AAXX 02154 43533 42465 72003 10278 20251 30129 40131 8227/ 333 58010 82818 87362=
43577
AAXX 02154 43577 42462 71103 10276 20246 30133 40135 8227/ 333 58012 82818 87363=
43588
AAXX 02154 43588 42460 71403 10278 20249 30128 40129 8223/ 333 58001 82818 87362=
43599
AAXX 02154 43599 42459 81105 10278 20251 30130 40132 8227/ 333 58000 82817 87361=
Last Updated : 2021-08-02 19:59:48